Main page
METAR-TAF:

METAR-TAF

Airports :

Augsburg Airport

Augsburg, Germany

latitude: 48-26N, longitude: 010-56E, elevation: 461 m

Current weather observation

The report was made 26 minutes ago, at 16:20 UTC
Wind 3 kt from the West, varying between South and North/Northwest
Temperature 28°C
Humidity 42%
Pressure 1020 hPa
Visibility 10 km or more
no clouds below 1500 m and no cumulonimbus

METAR: EDMA 201620Z 27003KT 170V330 CAVOK 28/14 Q1020

Time: 18:46 (16:46 UTC)

Forecast

The report was made 2 hours and 46 minutes ago, at 14:00 UTC
Forecast valid from 20 at 15 UTC to 20 at 24 UTC
Wind 5 kt from the East
Visibility 10 km or more
no clouds below 1500 m and no cumulonimbus
Becoming
from 20 at 18 UTC to 20 at 20 UTC
Wind 2 kt from variable directions

TAF: EDMA 201400Z 2015/2024 09005KT CAVOK BECMG 2018/2020 VRB02KT

Weather observations and forecasts of more than 4000 airports (METAR and TAF reports).

The available stations are represented by yellow and red dots on the map.

Hover mouse over dot to see the name of the station.

Then click to see weather observations and forecasts.

To change the map : click on the green buttons with a black cross to zoom in, on the green button with a dash to zoom out, or on the green arrows for adjacent maps.


METAR-TAF: